Time;durP1;ratioP1;P1;durP2;ratioP2;P2;SDS_P1;SDS_P2;PMS_P1;PMS_P2;Temp;Humidity;BMP_temperature;BMP_pressure;BME280_temperature;BME280_humidity;BME280_pressure;Samples;Min_cycle;Max_cycle;Signal;HPM_P1;HPM_P2
2022/12/22 03:27:49;;;;;;;1.43;1.27;;;6.90;99.90;;;;;;6179114;23;20439;-69
2022/12/22 03:30:16;;;;;;;2.17;1.30;;;7.00;99.90;;;;;;6178945;23;20415;-70
2022/12/22 03:32:44;;;;;;;2.07;1.87;;;7.00;99.90;;;;;;6179158;23;20408;-70
2022/12/22 03:35:11;;;;;;;2.70;1.77;;;7.10;99.90;;;;;;6179066;23;20416;-70
2022/12/22 03:37:38;;;;;;;1.77;1.23;;;7.10;99.90;;;;;;6179033;23;20408;-71
2022/12/22 03:40:06;;;;;;;1.77;1.37;;;7.20;99.90;;;;;;6178961;23;20420;-71
2022/12/22 03:48:03;;;;;;;2.33;1.40;;;7.30;99.90;;;;;;6179056;23;20391;-70
2022/12/22 03:50:30;;;;;;;1.70;1.40;;;7.10;99.90;;;;;;6178939;23;20419;-70
2022/12/22 03:52:56;;;;;;;1.70;1.30;;;7.20;99.90;;;;;;6179351;23;20414;-70
2022/12/22 03:55:23;;;;;;;1.63;1.53;;;7.30;99.90;;;;;;6179576;23;20405;-70
2022/12/22 03:57:50;;;;;;;1.87;1.30;;;7.30;99.90;;;;;;6179206;23;20404;-70
2022/12/22 04:00:17;;;;;;;1.33;1.17;;;7.20;99.90;;;;;;6178524;23;20420;-70
2022/12/22 04:02:44;;;;;;;1.80;1.40;;;7.30;99.90;;;;;;6179142;23;20400;-70
2022/12/22 04:05:12;;;;;;;1.70;1.43;;;7.40;99.90;;;;;;6178839;23;20410;-70
2022/12/22 04:07:39;;;;;;;2.60;1.40;;;7.40;99.90;;;;;;6179096;23;20397;-70
2022/12/22 04:12:55;;;;;;;1.30;1.20;;;7.30;99.90;;;;;;6179084;23;20387;-69
2022/12/22 04:15:22;;;;;;;1.77;1.67;;;7.20;99.90;;;;;;6179454;23;20408;-69
2022/12/22 04:17:49;;;;;;;1.97;1.70;;;7.20;99.90;;;;;;6179230;23;20410;-70
2022/12/22 04:20:19;;;;;;;10.27;1.93;;;7.30;99.90;;;;;;6178445;23;20396;-69
2022/12/22 04:22:46;;;;;;;2.20;1.57;;;7.20;99.90;;;;;;6178433;23;20893;-70
2022/12/22 04:25:13;;;;;;;1.70;1.57;;;7.20;99.90;;;;;;6179148;23;20404;-69
2022/12/22 04:27:39;;;;;;;2.10;1.30;;;7.20;99.90;;;;;;6178608;23;20941;-69
2022/12/22 04:30:08;;;;;;;2.03;1.50;;;7.20;99.90;;;;;;6179149;23;20388;-69
2022/12/22 04:32:35;;;;;;;1.30;1.20;;;7.20;99.90;;;;;;6179314;23;20415;-70
2022/12/22 04:35:02;;;;;;;2.53;1.50;;;7.20;99.90;;;;;;6178914;23;20400;-69
2022/12/22 04:37:30;;;;;;;2.00;1.40;;;7.20;99.90;;;;;;6178403;23;20411;-70
2022/12/22 04:39:56;;;;;;;1.60;1.27;;;7.20;99.90;;;;;;6178953;23;20419;-71
2022/12/22 04:42:23;;;;;;;1.43;1.27;;;7.20;99.90;;;;;;6178978;23;20418;-71
2022/12/22 04:44:50;;;;;;;3.27;1.60;;;7.30;99.90;;;;;;6178692;23;20747;-71
2022/12/22 04:47:17;;;;;;;1.77;1.13;;;7.30;99.90;;;;;;6178710;23;20443;-70
2022/12/22 04:49:44;;;;;;;1.50;1.20;;;7.40;99.90;;;;;;6178783;23;20408;-69
2022/12/22 04:52:11;;;;;;;1.63;1.30;;;7.40;99.90;;;;;;6178514;23;20408;-70
2022/12/22 04:54:39;;;;;;;1.67;1.13;;;7.40;99.90;;;;;;6178953;23;20412;-70
2022/12/22 04:57:05;;;;;;;2.07;1.50;;;7.50;99.90;;;;;;6178568;23;20945;-72
2022/12/22 04:59:32;;;;;;;1.30;1.07;;;7.50;99.90;;;;;;6178615;23;20756;-70
2022/12/22 05:01:59;;;;;;;2.50;1.60;;;7.50;99.90;;;;;;6177995;23;20898;-77
2022/12/22 05:04:26;;;;;;;1.93;1.60;;;7.40;99.90;;;;;;6179232;23;20412;-80
2022/12/22 05:06:53;;;;;;;1.43;1.20;;;7.40;99.90;;;;;;6179461;23;20783;-77
2022/12/22 05:09:19;;;;;;;1.57;1.10;;;7.40;99.90;;;;;;6180215;23;20430;-81
2022/12/22 05:11:47;;;;;;;1.10;1.00;;;7.40;99.90;;;;;;6179714;23;20412;-79
2022/12/22 05:14:14;;;;;;;1.30;1.17;;;7.50;99.90;;;;;;6180449;23;20415;-80
2022/12/22 05:16:41;;;;;;;1.80;1.30;;;7.60;99.90;;;;;;6180863;23;20404;-82
2022/12/22 05:19:08;;;;;;;1.30;1.10;;;7.70;99.90;;;;;;6180184;23;20404;-76
2022/12/22 05:21:34;;;;;;;2.40;1.30;;;7.60;99.90;;;;;;6180452;23;20396;-83
2022/12/22 05:24:01;;;;;;;1.30;1.20;;;7.50;99.90;;;;;;6179691;23;20431;-76
2022/12/22 05:26:28;;;;;;;3.10;1.60;;;7.60;99.90;;;;;;6180275;23;20745;-76
2022/12/22 05:28:56;;;;;;;1.80;1.20;;;7.50;99.90;;;;;;6179858;23;20458;-76
2022/12/22 05:31:24;;;;;;;1.80;1.10;;;7.40;99.90;;;;;;6180168;23;20607;-76
2022/12/22 05:33:51;;;;;;;1.20;1.10;;;7.20;99.90;;;;;;6178494;23;20903;-74
2022/12/22 05:36:19;;;;;;;2.37;2.00;;;7.20;99.90;;;;;;6180046;23;20898;-78
2022/12/22 05:38:46;;;;;;;2.80;1.87;;;7.00;99.90;;;;;;6180412;23;20737;-75
2022/12/22 05:41:13;;;;;;;5.10;2.00;;;6.80;99.90;;;;;;6180318;23;20416;-78
2022/12/22 05:43:40;;;;;;;2.03;1.83;;;6.40;99.90;;;;;;6180105;23;20416;-82
2022/12/22 05:46:10;;;;;;;20.23;16.60;;;6.50;99.90;;;;;;6180176;23;20444;-73
2022/12/22 05:48:38;;;;;;;2.27;2.00;;;6.50;99.90;;;;;;6180062;23;20395;-76
2022/12/22 05:51:05;;;;;;;3.60;1.80;;;6.40;99.90;;;;;;6179469;23;20415;-78
2022/12/22 05:53:31;;;;;;;3.30;2.47;;;6.30;99.90;;;;;;6180083;23;20404;-77
2022/12/22 05:55:58;;;;;;;2.13;1.83;;;6.10;99.90;;;;;;6180268;23;20608;-77
2022/12/22 05:58:25;;;;;;;2.53;1.90;;;6.00;99.90;;;;;;6179634;23;20409;-77
2022/12/22 06:00:52;;;;;;;2.30;2.10;;;5.90;99.90;;;;;;6179504;23;20948;-78
2022/12/22 06:03:20;;;;;;;3.20;1.57;;;5.80;99.90;;;;;;6179879;23;20519;-77
2022/12/22 06:05:49;;;;;;;2.87;1.60;;;5.80;99.90;;;;;;6179317;23;20910;-78
2022/12/22 06:08:16;;;;;;;2.53;2.30;;;5.70;99.90;;;;;;6179672;23;20415;-81
2022/12/22 06:10:42;;;;;;;2.40;2.20;;;5.70;99.90;;;;;;6179911;23;20436;-80
2022/12/22 06:13:09;;;;;;;2.70;1.70;;;5.60;99.90;;;;;;6179645;23;20431;-79
2022/12/22 06:15:36;;;;;;;1.90;1.70;;;5.60;99.90;;;;;;6178469;23;20771;-80
2022/12/22 06:18:03;;;;;;;1.83;1.37;;;5.60;99.90;;;;;;6181351;23;20411;-81
2022/12/22 06:20:31;;;;;;;3.13;1.60;;;6.10;99.90;;;;;;6180712;23;20752;-81
2022/12/22 06:22:57;;;;;;;1.40;1.10;;;6.30;99.90;;;;;;6178583;23;20910;-82
2022/12/22 06:25:24;;;;;;;1.00;0.90;;;6.70;99.90;;;;;;6179010;23;20785;-78
2022/12/22 06:27:51;;;;;;;1.70;1.00;;;7.20;99.90;;;;;;6180499;23;20802;-88
2022/12/22 06:30:18;;;;;;;2.63;1.13;;;7.30;99.90;;;;;;6183100;23;20419;-87
2022/12/22 06:32:45;;;;;;;2.33;1.20;;;7.50;99.90;;;;;;6180390;23;20749;-83
2022/12/22 06:35:11;;;;;;;1.87;1.53;;;7.60;99.90;;;;;;6179347;23;20404;-83
2022/12/22 06:37:40;;;;;;;3.73;1.17;;;7.60;99.90;;;;;;6177214;23;20404;-81
2022/12/22 06:40:08;;;;;;;1.60;1.00;;;7.70;99.90;;;;;;6179484;23;20392;-83
2022/12/22 06:45:19;;;;;;;1.57;1.20;;;7.80;99.90;;;;;;6179237;23;20456;-82
2022/12/22 06:47:46;;;;;;;1.10;1.00;;;7.80;99.90;;;;;;6180519;23;20483;-82
2022/12/22 06:50:13;;;;;;;2.23;1.00;;;7.90;99.90;;;;;;6179622;23;20418;-81
2022/12/22 06:52:41;;;;;;;5.60;1.00;;;7.90;99.90;;;;;;6179439;23;20419;-83
2022/12/22 06:55:08;;;;;;;1.93;1.00;;;7.90;99.90;;;;;;6179371;23;20503;-82
2022/12/22 06:57:35;;;;;;;2.90;1.00;;;7.90;99.90;;;;;;6178526;23;20430;-84
2022/12/22 07:00:03;;;;;;;1.40;0.90;;;7.90;99.90;;;;;;6180048;23;20415;-83
2022/12/22 07:02:30;;;;;;;2.30;1.13;;;8.00;99.90;;;;;;6180142;23;20420;-82
2022/12/22 07:04:57;;;;;;;1.83;1.10;;;8.30;99.90;;;;;;6179614;23;20412;-82
2022/12/22 07:07:24;;;;;;;1.13;0.97;;;8.50;99.90;;;;;;6181025;23;20443;-79
2022/12/22 07:09:53;;;;;;;5.37;0.97;;;8.70;99.90;;;;;;6178920;23;20434;-81
2022/12/22 07:12:19;;;;;;;1.10;1.00;;;8.70;99.90;;;;;;6180736;23;20408;-80
2022/12/22 07:14:46;;;;;;;6.47;1.43;;;9.20;99.90;;;;;;6182449;23;20476;-79
2022/12/22 07:17:13;;;;;;;1.43;0.90;;;9.20;99.90;;;;;;6182672;23;20406;-79
2022/12/22 07:19:40;;;;;;;1.60;1.27;;;9.30;99.90;;;;;;6183091;23;20408;-81
2022/12/22 07:22:07;;;;;;;3.20;0.97;;;9.30;99.90;;;;;;6182380;23;20746;-80
2022/12/22 07:24:33;;;;;;;1.43;0.90;;;9.30;99.90;;;;;;6179775;23;20737;-81
2022/12/22 07:27:02;;;;;;;3.00;1.20;;;9.30;99.90;;;;;;6179713;23;20442;-80
2022/12/22 07:29:28;;;;;;;1.83;1.20;;;9.00;99.90;;;;;;6179636;23;20442;-82
2022/12/22 07:31:55;;;;;;;1.80;1.00;;;9.00;99.90;;;;;;6181993;23;20407;-82
2022/12/22 07:34:22;;;;;;;1.47;1.37;;;9.10;99.90;;;;;;6180228;23;20412;-83
2022/12/22 07:36:49;;;;;;;1.20;1.00;;;9.00;99.90;;;;;;6179328;23;20920;-81
2022/12/22 07:39:15;;;;;;;3.53;1.23;;;9.00;99.90;;;;;;6179168;23;20415;-82
2022/12/22 07:44:28;;;;;;;2.33;1.10;;;9.20;99.90;;;;;;6180043;23;20444;-81
2022/12/22 07:46:55;;;;;;;8.83;1.43;;;9.20;99.90;;;;;;6179761;23;20773;-83
2022/12/22 07:52:06;;;;;;;1.67;1.53;;;9.00;99.90;;;;;;6180066;23;20380;-80
2022/12/22 07:54:35;;;;;;;3.03;1.30;;;9.00;99.90;;;;;;6178269;23;20451;-84
2022/12/22 07:57:01;;;;;;;1.57;1.40;;;8.90;99.90;;;;;;6179048;23;20411;-83
2022/12/22 07:59:30;;;;;;;3.50;1.50;;;8.90;99.90;;;;;;6179057;23;20408;-83
2022/12/22 08:01:56;;;;;;;2.83;1.23;;;8.80;99.90;;;;;;6178894;23;20446;-81
2022/12/22 08:04:23;;;;;;;4.40;1.33;;;8.70;99.90;;;;;;6189878;23;20414;-79
2022/12/22 08:06:50;;;;;;;2.60;1.00;;;8.70;99.90;;;;;;6178880;23;20440;-81
2022/12/22 08:09:20;;;;;;;1.67;1.30;;;8.70;99.90;;;;;;6180492;23;20776;-84
2022/12/22 08:11:47;;;;;;;1.80;1.20;;;8.90;99.90;;;;;;6179230;23;20933;-83
2022/12/22 08:14:14;;;;;;;2.30;0.90;;;9.00;99.90;;;;;;6178956;23;20411;-80
2022/12/22 08:16:42;;;;;;;2.50;1.30;;;9.10;99.90;;;;;;6179295;23;20418;-81
2022/12/22 08:19:09;;;;;;;1.40;1.03;;;9.20;99.90;;;;;;6179167;23;20416;-81
2022/12/22 08:21:36;;;;;;;1.60;1.03;;;9.20;99.90;;;;;;6179023;23;20418;-83
2022/12/22 08:24:03;;;;;;;1.17;1.03;;;9.20;99.90;;;;;;6178714;23;20403;-83
2022/12/22 08:26:36;;;;;;;3.83;1.10;;;9.20;99.90;;;;;;6178737;23;20416;-81
2022/12/22 08:29:08;;;;;;;1.93;1.00;;;9.20;99.90;;;;;;6178411;23;20440;-81
2022/12/22 08:31:35;;;;;;;2.80;1.17;;;9.30;99.90;;;;;;6178368;23;20391;-82
2022/12/22 08:34:06;;;;;;;1.73;1.30;;;9.40;99.90;;;;;;6178640;23;20396;-83
2022/12/22 08:36:37;;;;;;;3.87;1.83;;;9.40;99.90;;;;;;6178055;23;20393;-81
2022/12/22 08:39:04;;;;;;;1.47;1.10;;;9.50;99.90;;;;;;6179062;23;20392;-82
2022/12/22 08:41:50;;;;;;;5.57;1.57;;;9.70;99.90;;;;;;6180523;23;20408;-83
2022/12/22 08:44:18;;;;;;;1.47;0.90;;;9.70;99.90;;;;;;6180831;23;20396;-83
2022/12/22 08:46:45;;;;;;;4.10;1.13;;;9.80;99.90;;;;;;6180816;23;20408;-82
2022/12/22 08:49:13;;;;;;;2.80;1.10;;;9.80;99.90;;;;;;6180764;23;20426;-83
2022/12/22 08:51:40;;;;;;;2.37;1.10;;;9.80;99.90;;;;;;6181678;23;20408;-84
2022/12/22 08:54:07;;;;;;;5.10;1.50;;;9.90;99.90;;;;;;6181414;23;20404;-81
2022/12/22 08:56:34;;;;;;;2.60;1.17;;;10.00;99.90;;;;;;6180983;23;20400;-81
2022/12/22 08:59:03;;;;;;;1.17;1.03;;;9.90;99.90;;;;;;6184122;23;20418;-82
2022/12/22 09:01:32;;;;;;;2.30;1.10;;;10.00;99.90;;;;;;6181885;23;20408;-82
2022/12/22 09:03:59;;;;;;;1.37;1.23;;;10.00;99.90;;;;;;6181552;23;20458;-81
2022/12/22 09:06:28;;;;;;;3.10;1.10;;;10.00;99.90;;;;;;6180230;23;20415;-83
2022/12/22 09:08:56;;;;;;;3.33;1.77;;;10.00;99.90;;;;;;6179354;23;20986;-84
2022/12/22 09:11:22;;;;;;;2.70;1.30;;;10.10;99.90;;;;;;6180330;23;20408;-83
2022/12/22 09:13:51;;;;;;;4.13;1.47;;;10.10;99.90;;;;;;6179878;23;20404;-81
2022/12/22 09:16:17;;;;;;;2.37;1.30;;;10.00;99.90;;;;;;6180149;23;20412;-83
2022/12/22 09:18:44;;;;;;;3.37;1.40;;;10.30;99.90;;;;;;6180506;23;20458;-83
2022/12/22 09:21:11;;;;;;;4.10;1.07;;;10.30;99.90;;;;;;6180129;23;20408;-82
2022/12/22 09:23:39;;;;;;;1.60;1.37;;;10.30;99.90;;;;;;6179843;23;20408;-84
2022/12/22 09:26:08;;;;;;;3.30;1.40;;;10.20;99.90;;;;;;6180442;23;20502;-82
2022/12/22 09:28:35;;;;;;;4.73;1.60;;;10.30;99.90;;;;;;6179727;23;20498;-81
2022/12/22 09:31:01;;;;;;;1.50;1.23;;;10.50;99.90;;;;;;6181090;23;20418;-82
2022/12/22 09:33:28;;;;;;;1.80;1.20;;;10.50;99.90;;;;;;6180180;23;20412;-81
2022/12/22 09:35:55;;;;;;;1.43;1.33;;;10.40;99.90;;;;;;6179400;23;20923;-82
2022/12/22 09:38:22;;;;;;;3.93;1.20;;;10.30;99.90;;;;;;6180618;23;20408;-82
2022/12/22 09:40:50;;;;;;;2.37;1.13;;;10.30;99.90;;;;;;6180148;23;20412;-81
2022/12/22 09:43:19;;;;;;;1.53;1.10;;;10.40;99.90;;;;;;6179460;23;20920;-83
2022/12/22 09:45:46;;;;;;;1.17;1.00;;;10.40;99.90;;;;;;6180170;23;20414;-81
2022/12/22 09:48:14;;;;;;;2.27;0.93;;;10.50;99.90;;;;;;6179245;23;20763;-80
2022/12/22 09:50:42;;;;;;;4.47;1.30;;;10.50;99.90;;;;;;6179273;23;20913;-81
2022/12/22 09:53:21;;;;;;;2.00;1.10;;;10.50;99.90;;;;;;6180061;23;20412;-80
2022/12/22 09:55:51;;;;;;;4.03;1.47;;;10.40;99.90;;;;;;6179582;23;20724;-84
2022/12/22 09:58:23;;;;;;;2.40;1.10;;;10.50;99.90;;;;;;6179525;23;20431;-81
2022/12/22 10:00:54;;;;;;;4.23;1.30;;;10.70;99.90;;;;;;6179747;23;20396;-82
2022/12/22 10:03:32;;;;;;;3.47;1.17;;;10.80;99.90;;;;;;6179720;23;20874;-81
2022/12/22 10:06:09;;;;;;;1.40;0.90;;;10.80;99.90;;;;;;6181274;23;20479;-81
2022/12/22 10:08:39;;;;;;;1.43;1.10;;;10.80;99.90;;;;;;6179653;23;20427;-82
2022/12/22 10:11:13;;;;;;;3.00;1.23;;;10.80;99.90;;;;;;6179705;23;20404;-82
2022/12/22 10:13:40;;;;;;;1.30;1.10;;;10.90;99.90;;;;;;6179779;23;20384;-83
2022/12/22 10:16:17;;;;;;;1.87;1.40;;;10.90;99.90;;;;;;6179416;23;20404;-81
2022/12/22 10:18:56;;;;;;;2.00;1.20;;;10.90;99.90;;;;;;6179730;23;20388;-82
2022/12/22 10:21:23;;;;;;;7.97;1.30;;;10.90;99.90;;;;;;6179825;23;20396;-81
2022/12/22 10:23:50;;;;;;;7.37;1.30;;;10.80;99.90;;;;;;6179528;23;20443;-85
2022/12/22 10:26:22;;;;;;;1.40;1.10;;;10.90;99.90;;;;;;6179739;23;20496;-85
2022/12/22 10:28:51;;;;;;;2.27;1.20;;;10.90;99.90;;;;;;6179128;23;20538;-82
2022/12/22 10:31:21;;;;;;;21.80;1.83;;;10.90;99.90;;;;;;6179263;23;20408;-83
2022/12/22 10:33:49;;;;;;;2.40;1.40;;;10.80;99.90;;;;;;6179527;23;20739;-80
2022/12/22 10:36:21;;;;;;;2.40;1.43;;;10.90;99.90;;;;;;6181369;23;20412;-83
2022/12/22 10:39:01;;;;;;;5.33;1.10;;;11.10;99.90;;;;;;6181472;23;20384;-82
2022/12/22 10:41:32;;;;;;;1.87;1.30;;;11.10;99.90;;;;;;6179988;23;20505;-83
2022/12/22 10:44:02;;;;;;;3.20;1.30;;;11.10;99.90;;;;;;6179940;23;20388;-80
2022/12/22 10:46:36;;;;;;;2.37;1.70;;;11.30;99.90;;;;;;6179433;23;20936;-82
2022/12/22 10:49:13;;;;;;;1.40;1.20;;;11.30;99.90;;;;;;6179559;23;20426;-84
2022/12/22 10:51:42;;;;;;;5.70;1.47;;;11.30;99.90;;;;;;6180165;23;20424;-82
2022/12/22 10:54:09;;;;;;;3.53;1.47;;;11.30;99.90;;;;;;6179750;23;20781;-82
2022/12/22 10:56:37;;;;;;;1.83;1.17;;;11.40;99.90;;;;;;6178997;23;20451;-83
2022/12/22 10:59:18;;;;;;;4.27;1.33;;;11.30;99.90;;;;;;6180037;23;20402;-83
2022/12/22 11:01:45;;;;;;;6.63;1.47;;;11.40;99.90;;;;;;6179347;23;20393;-80
2022/12/22 11:04:18;;;;;;;1.30;1.00;;;11.40;99.90;;;;;;6180812;23;20548;-75
2022/12/22 11:06:45;;;;;;;2.57;1.40;;;11.50;99.90;;;;;;6181408;23;20931;-70
2022/12/22 11:09:12;;;;;;;3.87;1.50;;;11.60;99.90;;;;;;6178683;23;20441;-74
2022/12/22 11:11:46;;;;;;;14.43;2.13;;;11.50;99.90;;;;;;6179434;23;20418;-71
2022/12/22 11:14:23;;;;;;;4.60;1.50;;;11.40;99.90;;;;;;6179065;23;20658;-73
2022/12/22 11:16:55;;;;;;;2.60;1.40;;;10.70;99.90;;;;;;6179436;23;20403;-73
2022/12/22 11:19:40;;;;;;;3.80;1.40;;;10.50;99.90;;;;;;6179208;23;20713;-72
2022/12/22 11:22:16;;;;;;;4.47;1.50;;;10.20;99.90;;;;;;6179574;23;20841;-72
2022/12/22 11:24:55;;;;;;;3.00;1.47;;;10.20;99.90;;;;;;6179888;23;20471;-73
2022/12/22 11:27:30;;;;;;;4.30;2.27;;;10.20;99.90;;;;;;6178673;23;20731;-73
2022/12/22 11:30:04;;;;;;;3.70;1.63;;;10.10;99.90;;;;;;6178532;23;20400;-74
2022/12/22 11:32:47;;;;;;;1.60;1.37;;;10.20;99.90;;;;;;6179230;23;20668;-73
2022/12/22 11:35:22;;;;;;;3.30;1.10;;;10.20;99.90;;;;;;6180047;23;20630;-76
2022/12/22 11:37:53;;;;;;;4.30;1.50;;;10.10;99.90;;;;;;6178942;23;20412;-75
2022/12/22 11:40:30;;;;;;;4.13;1.80;;;9.90;99.90;;;;;;6179375;23;20400;-76
2022/12/22 11:43:17;;;;;;;5.57;1.83;;;9.80;99.90;;;;;;6179681;23;20691;-76
2022/12/22 11:45:54;;;;;;;4.17;1.60;;;9.80;99.90;;;;;;6186436;23;20639;-75
2022/12/22 11:48:45;;;;;;;1.13;1.03;;;9.90;99.90;;;;;;6182803;23;20428;-76
2022/12/22 11:51:23;;;;;;;2.70;1.60;;;9.80;99.90;;;;;;6182577;23;20391;-76
2022/12/22 11:54:14;;;;;;;2.53;1.40;;;9.80;99.90;;;;;;6186308;23;20486;-76
2022/12/22 11:56:43;;;;;;;3.03;1.60;;;9.80;99.90;;;;;;6185652;23;20402;-76
2022/12/22 11:59:30;;;;;;;4.60;1.70;;;9.90;99.90;;;;;;6186467;23;20410;-76
2022/12/22 12:02:24;;;;;;;9.93;1.90;;;10.00;99.90;;;;;;6189360;23;20464;-77
2022/12/22 12:05:19;;;;;;;5.33;1.73;;;10.10;99.90;;;;;;6185392;23;20973;-76
2022/12/22 12:07:50;;;;;;;5.00;1.50;;;10.10;99.90;;;;;;6174641;23;20795;-77
2022/12/22 12:10:23;;;;;;;9.13;1.80;;;10.10;99.90;;;;;;6180418;23;20434;-77
2022/12/22 12:12:56;;;;;;;7.23;1.87;;;10.30;99.90;;;;;;6181492;23;20393;-76
2022/12/22 12:15:31;;;;;;;3.40;1.50;;;10.30;99.90;;;;;;6184900;23;20476;-76
2022/12/22 12:18:37;;;;;;;11.40;1.53;;;10.30;99.90;;;;;;6188323;23;20414;-75
2022/12/22 12:21:21;;;;;;;2.20;1.80;;;10.60;99.90;;;;;;6163925;23;20408;-75
2022/12/22 12:24:04;;;;;;;4.70;1.70;;;10.50;99.90;;;;;;6183249;23;20867;-75
2022/12/22 12:26:38;;;;;;;8.33;2.37;;;10.50;99.90;;;;;;6180600;23;20889;-73
2022/12/22 12:29:15;;;;;;;4.90;2.10;;;10.60;99.90;;;;;;6180420;23;20462;-72
2022/12/22 12:31:48;;;;;;;7.13;1.73;;;10.50;99.90;;;;;;6180677;23;20394;-72
2022/12/22 12:34:18;;;;;;;4.97;1.97;;;10.50;99.90;;;;;;6180096;23;20388;-72
2022/12/22 12:36:50;;;;;;;8.20;1.83;;;10.60;99.90;;;;;;6180142;23;20412;-72
2022/12/22 12:39:25;;;;;;;2.53;1.60;;;10.70;99.90;;;;;;6181821;23;20390;-72
2022/12/22 12:41:59;;;;;;;3.97;1.90;;;10.80;99.90;;;;;;6180130;23;20387;-71
2022/12/22 12:44:29;;;;;;;3.23;1.53;;;10.60;99.90;;;;;;6178759;23;20870;-71
2022/12/22 12:47:06;;;;;;;4.13;1.60;;;10.70;99.90;;;;;;6178533;23;20427;-72
2022/12/22 12:49:59;;;;;;;5.57;1.70;;;10.60;99.90;;;;;;6186358;23;20427;-72
2022/12/22 12:53:04;;;;;;;2.30;1.37;;;10.70;99.90;;;;;;6182152;23;20394;-72
2022/12/22 12:55:32;;;;;;;4.30;1.43;;;10.80;99.90;;;;;;6180775;23;20391;-72
2022/12/22 12:58:01;;;;;;;6.07;1.63;;;10.80;99.90;;;;;;6179005;23;20416;-72
2022/12/22 13:00:48;;;;;;;2.23;1.83;;;10.80;99.90;;;;;;6178919;23;20436;-71
2022/12/22 13:03:38;;;;;;;2.90;1.70;;;10.80;99.90;;;;;;6178694;23;20398;-71
2022/12/22 13:06:08;;;;;;;4.33;2.07;;;10.90;99.90;;;;;;6179258;23;20400;-71
2022/12/22 13:09:15;;;;;;;8.20;2.20;;;11.00;99.90;;;;;;6180231;23;20542;-72
2022/12/22 13:11:42;;;;;;;3.97;2.30;;;11.00;99.90;;;;;;6178952;23;20392;-73
2022/12/22 13:14:09;;;;;;;4.80;1.50;;;10.90;99.90;;;;;;6178836;23;20436;-73
2022/12/22 13:16:39;;;;;;;2.37;1.30;;;11.00;99.90;;;;;;6179254;23;20446;-72
2022/12/22 13:19:20;;;;;;;3.90;1.23;;;11.10;99.90;;;;;;6179279;23;20451;-72
2022/12/22 13:21:47;;;;;;;2.53;1.70;;;11.00;99.90;;;;;;6178205;23;20392;-72
2022/12/22 13:24:20;;;;;;;3.53;1.60;;;11.10;99.90;;;;;;6178825;23;20416;-72
2022/12/22 13:26:49;;;;;;;3.87;1.90;;;11.10;99.90;;;;;;6177814;23;20399;-72
2022/12/22 13:29:23;;;;;;;6.23;1.80;;;10.90;99.90;;;;;;6174359;23;20458;-72
2022/12/22 13:31:55;;;;;;;3.20;1.30;;;11.00;99.90;;;;;;6177282;23;20472;-73
2022/12/22 13:34:35;;;;;;;3.73;1.73;;;11.00;99.90;;;;;;6178773;23;20488;-72
2022/12/22 13:37:13;;;;;;;5.47;2.43;;;11.00;99.90;;;;;;6178503;23;20388;-72
2022/12/22 13:39:40;;;;;;;4.40;1.90;;;11.00;99.90;;;;;;6178023;23;20397;-72
2022/12/22 13:42:08;;;;;;;3.13;2.10;;;11.00;99.90;;;;;;6179051;23;20432;-72
2022/12/22 13:44:35;;;;;;;4.40;2.13;;;11.00;99.90;;;;;;6177564;23;20466;-72
2022/12/22 13:47:04;;;;;;;3.13;1.50;;;10.90;99.90;;;;;;6178307;23;20444;-72
2022/12/22 13:49:35;;;;;;;6.77;1.83;;;10.90;99.90;;;;;;6177951;23;20447;-72
2022/12/22 13:52:02;;;;;;;5.83;2.07;;;11.00;99.90;;;;;;6177733;23;20472;-72
2022/12/22 13:54:32;;;;;;;6.50;1.90;;;11.00;99.90;;;;;;6178561;23;20404;-72
2022/12/22 13:57:03;;;;;;;5.13;1.70;;;11.00;99.90;;;;;;6178009;23;20388;-72
2022/12/22 13:59:32;;;;;;;4.90;1.60;;;10.90;99.90;;;;;;6177158;23;21042;-72
2022/12/22 14:02:01;;;;;;;2.73;1.60;;;11.00;99.90;;;;;;6178384;23;20442;-72
2022/12/22 14:04:28;;;;;;;8.83;2.70;;;11.00;99.90;;;;;;6177337;23;20774;-72
2022/12/22 14:06:56;;;;;;;8.50;3.00;;;11.00;99.90;;;;;;6178690;23;20503;-73
2022/12/22 14:09:25;;;;;;;11.27;3.60;;;11.10;99.90;;;;;;6180227;23;20777;-71
2022/12/22 14:11:57;;;;;;;5.63;2.80;;;11.10;99.90;;;;;;6180401;23;20412;-71
2022/12/22 14:14:26;;;;;;;7.93;2.57;;;11.20;99.90;;;;;;6178731;23;20756;-71
2022/12/22 14:16:56;;;;;;;6.23;2.63;;;11.10;99.90;;;;;;6178350;23;20411;-73
2022/12/22 14:19:24;;;;;;;4.20;2.40;;;11.10;99.90;;;;;;6178778;23;20417;-73
2022/12/22 14:22:06;;;;;;;4.40;1.63;;;11.10;99.90;;;;;;6179646;23;20395;-73
2022/12/22 14:24:37;;;;;;;3.27;2.40;;;11.20;99.90;;;;;;6179330;23;20738;-73
2022/12/22 14:27:04;;;;;;;4.27;3.00;;;11.10;99.90;;;;;;6178326;23;20723;-73
2022/12/22 14:29:31;;;;;;;7.80;2.50;;;11.10;99.90;;;;;;6178317;23;20563;-73
2022/12/22 14:32:00;;;;;;;5.63;2.80;;;11.10;99.90;;;;;;6178292;23;20412;-83
2022/12/22 14:34:29;;;;;;;10.53;3.67;;;11.00;99.90;;;;;;6178488;23;20408;-75
2022/12/22 14:36:56;;;;;;;8.97;2.70;;;11.00;99.90;;;;;;6177664;23;20408;-75
2022/12/22 14:39:26;;;;;;;4.83;2.27;;;11.00;99.90;;;;;;6178341;23;20400;-77
2022/12/22 14:41:55;;;;;;;10.10;4.60;;;10.90;99.90;;;;;;6178368;23;20875;-73
2022/12/22 14:44:25;;;;;;;6.23;2.00;;;10.80;99.90;;;;;;6179510;23;20412;-68
2022/12/22 14:47:17;;;;;;;7.70;2.70;;;11.00;99.90;;;;;;6177634;23;20838;-68
2022/12/22 14:49:47;;;;;;;7.60;2.23;;;10.90;99.90;;;;;;6171333;23;20593;-71
2022/12/22 14:52:26;;;;;;;5.50;2.47;;;10.80;99.90;;;;;;6179193;23;20404;-74
2022/12/22 14:54:55;;;;;;;5.90;4.03;;;10.90;99.90;;;;;;6179047;23;20862;-71
2022/12/22 14:57:30;;;;;;;11.43;3.70;;;10.90;99.90;;;;;;6178733;23;20898;-73
2022/12/22 15:00:00;;;;;;;5.93;2.07;;;10.80;99.90;;;;;;6177915;23;20888;-73
2022/12/22 15:02:29;;;;;;;11.30;3.17;;;10.80;99.90;;;;;;6178673;23;20408;-71
2022/12/22 15:05:08;;;;;;;3.10;2.20;;;10.80;99.90;;;;;;6179311;23;20415;-71
2022/12/22 15:07:44;;;;;;;6.47;2.77;;;10.90;99.90;;;;;;6178400;23;20395;-72
2022/12/22 15:10:12;;;;;;;6.40;2.53;;;10.90;99.90;;;;;;6178669;23;21076;-72
2022/12/22 15:12:40;;;;;;;5.77;3.23;;;10.80;99.90;;;;;;6179597;23;20431;-72
2022/12/22 15:15:17;;;;;;;7.10;2.27;;;10.80;99.90;;;;;;6179410;23;20404;-72
2022/12/22 15:17:45;;;;;;;3.90;2.53;;;10.80;99.90;;;;;;6179535;23;20416;-72
2022/12/22 15:20:17;;;;;;;7.27;3.27;;;10.80;99.90;;;;;;6178676;23;20400;-72
2022/12/22 15:22:44;;;;;;;4.90;2.30;;;10.80;99.90;;;;;;6178595;23;20412;-73
2022/12/22 15:25:16;;;;;;;2.90;1.93;;;10.80;99.90;;;;;;6178442;23;20772;-73
2022/12/22 15:27:44;;;;;;;4.33;2.53;;;10.80;99.90;;;;;;6178239;23;20515;-71
2022/12/22 15:30:13;;;;;;;5.57;2.23;;;10.90;99.90;;;;;;6177843;23;21202;-72
2022/12/22 15:32:40;;;;;;;10.37;3.40;;;10.80;99.90;;;;;;6178059;23;20420;-73
2022/12/22 15:35:25;;;;;;;7.07;2.63;;;10.80;99.90;;;;;;6178602;23;20459;-70
2022/12/22 15:37:52;;;;;;;6.03;2.07;;;10.80;99.90;;;;;;6178266;23;20385;-72
2022/12/22 15:40:22;;;;;;;7.57;2.20;;;10.80;99.90;;;;;;6178655;23;20400;-72
2022/12/22 15:42:50;;;;;;;6.53;2.73;;;10.90;99.90;;;;;;6179245;23;20389;-72
2022/12/22 15:45:17;;;;;;;3.40;2.27;;;10.90;99.90;;;;;;6178460;23;20408;-71
2022/12/22 15:47:49;;;;;;;5.43;2.30;;;10.80;99.90;;;;;;6179272;23;20434;-70
2022/12/22 15:50:19;;;;;;;10.87;2.47;;;10.90;99.90;;;;;;6178235;23;20671;-72
2022/12/22 15:52:50;;;;;;;9.30;2.70;;;10.80;99.90;;;;;;6178505;23;20408;-76
2022/12/22 15:55:18;;;;;;;6.83;2.37;;;10.70;99.90;;;;;;6178239;23;20901;-77
2022/12/22 15:57:47;;;;;;;6.50;1.83;;;10.70;99.90;;;;;;6178598;23;20415;-71
2022/12/22 16:00:15;;;;;;;4.73;1.50;;;10.70;99.90;;;;;;6177889;23;20996;-85
2022/12/22 16:02:41;;;;;;;7.03;2.63;;;10.70;99.90;;;;;;6180904;23;20622;-73
2022/12/22 16:05:10;;;;;;;4.83;2.23;;;10.60;99.90;;;;;;6177370;23;20440;-70
2022/12/22 16:07:37;;;;;;;7.13;2.13;;;10.60;99.90;;;;;;6179449;23;20936;-71
2022/12/22 16:10:06;;;;;;;11.83;2.40;;;10.70;99.90;;;;;;6176845;23;20483;-75
2022/12/22 16:12:36;;;;;;;11.00;2.23;;;10.60;99.90;;;;;;6178557;23;20411;-74
2022/12/22 16:15:05;;;;;;;4.17;2.10;;;10.70;99.90;;;;;;6178642;23;20765;-74
2022/12/22 16:17:31;;;;;;;4.07;1.73;;;10.60;99.90;;;;;;6179387;23;20459;-72
2022/12/22 16:19:59;;;;;;;8.90;2.73;;;10.70;99.90;;;;;;6179207;23;20463;-72
2022/12/22 16:22:32;;;;;;;4.90;2.03;;;10.60;99.90;;;;;;6177504;23;20451;-73
2022/12/22 16:25:02;;;;;;;3.30;1.87;;;10.50;99.90;;;;;;6177786;23;20446;-73
2022/12/22 16:27:29;;;;;;;4.27;2.03;;;10.50;99.90;;;;;;6178146;23;20451;-72
2022/12/22 16:29:57;;;;;;;4.80;2.50;;;10.50;99.90;;;;;;6178042;23;20510;-72
2022/12/22 16:32:28;;;;;;;3.80;1.60;;;10.50;99.90;;;;;;6178401;23;20408;-72
2022/12/22 16:34:59;;;;;;;4.10;2.27;;;10.50;99.90;;;;;;6171421;23;20434;-73
2022/12/22 16:37:26;;;;;;;7.03;2.40;;;10.40;99.90;;;;;;6173476;23;20730;-74
2022/12/22 16:39:53;;;;;;;5.87;1.33;;;10.30;99.90;;;;;;6170054;23;20412;-73
2022/12/22 16:42:20;;;;;;;3.00;2.07;;;10.40;99.90;;;;;;6172125;23;20408;-72
2022/12/22 16:44:47;;;;;;;8.83;2.00;;;10.30;99.90;;;;;;6173822;23;20400;-74
2022/12/22 16:47:18;;;;;;;3.93;1.83;;;10.40;99.90;;;;;;6174200;23;20409;-73
2022/12/22 16:49:48;;;;;;;3.80;2.13;;;10.40;99.90;;;;;;6174015;23;20450;-74